createdAt,value
2018-07-12T00:00:17.237Z,83.1
2018-07-12T00:01:16.345Z,83.0
2018-07-12T00:02:16.622Z,82.5
2018-07-12T00:03:16.894Z,82.5
2018-07-12T00:04:17.161Z,83.1
2018-07-12T00:05:16.431Z,82.7
2018-07-12T00:06:16.707Z,82.4
2018-07-12T00:07:17.057Z,82.4
2018-07-12T00:08:16.391Z,82.8
2018-07-12T00:09:16.650Z,82.5
2018-07-12T00:10:16.967Z,82.6
2018-07-12T00:11:16.982Z,82.7
2018-07-12T00:12:17.258Z,82.2
2018-07-12T00:13:16.538Z,82.6
2018-07-12T00:14:16.808Z,81.7
2018-07-12T00:15:17.071Z,82.0
2018-07-12T00:16:16.336Z,82.4
2018-07-12T00:17:16.594Z,82.8
2018-07-12T00:18:16.852Z,82.6
2018-07-12T00:19:17.107Z,83.1
2018-07-12T00:20:16.397Z,82.5
2018-07-12T00:21:16.435Z,82.5
2018-07-12T00:22:16.712Z,82.9
2018-07-12T00:23:16.976Z,83.0
2018-07-12T00:24:17.237Z,83.3
2018-07-12T00:25:16.508Z,84.4
2018-07-12T00:26:16.762Z,82.5
2018-07-12T00:27:17.289Z,82.2
2018-07-12T00:28:16.549Z,82.7
2018-07-12T00:29:16.813Z,83.4
2018-07-12T00:30:17.087Z,82.9
2018-07-12T00:31:17.109Z,83.3
2018-07-12T00:32:16.374Z,83.0
2018-07-12T00:33:16.638Z,83.1
2018-07-12T00:34:16.909Z,82.8
2018-07-12T00:35:17.167Z,81.9
2018-07-12T00:36:16.428Z,81.4
2018-07-12T00:37:16.699Z,81.6
2018-07-12T00:38:16.965Z,82.1
2018-07-12T00:39:17.220Z,83.2
2018-07-12T00:40:16.479Z,82.3
2018-07-12T00:41:16.523Z,82.5
2018-07-12T00:42:16.788Z,83.4
2018-07-12T00:43:17.043Z,83.4
2018-07-12T00:44:16.297Z,83.7
2018-07-12T00:45:16.559Z,83.8
2018-07-12T00:46:16.810Z,84.4
2018-07-12T00:47:17.254Z,84.2
2018-07-12T00:48:16.529Z,84.3
2018-07-12T00:49:16.784Z,84.2
2018-07-12T00:50:17.045Z,84.4
2018-07-12T00:51:17.096Z,84.9
2018-07-12T00:52:16.349Z,85.0
2018-07-12T00:53:16.905Z,85.5
2018-07-12T00:54:17.172Z,85.4
2018-07-12T00:55:16.440Z,84.8
2018-07-12T00:56:16.701Z,84.9
2018-07-12T00:57:16.921Z,84.9
2018-07-12T00:58:17.189Z,84.9
2018-07-12T00:59:16.465Z,84.9
2018-07-12T01:00:16.740Z,85.3
2018-07-12T01:01:16.777Z,85.5
2018-07-12T01:02:17.032Z,85.5
2018-07-12T01:03:16.297Z,85.3
2018-07-12T01:04:16.559Z,85.5
2018-07-12T01:05:16.823Z,85.9
2018-07-12T01:06:17.086Z,85.9
2018-07-12T01:07:16.346Z,85.8
2018-07-12T01:08:16.613Z,85.8
2018-07-12T01:09:16.929Z,86.0
2018-07-12T01:10:17.210Z,86.0
2018-07-12T01:11:17.254Z,85.9
2018-07-12T01:12:16.517Z,86.0
2018-07-12T01:13:16.780Z,86.4
2018-07-12T01:14:17.049Z,86.3
2018-07-12T01:15:16.306Z,86.2
2018-07-12T01:16:16.573Z,86.4
2018-07-12T01:17:16.838Z,86.2
2018-07-12T01:18:17.356Z,86.6
2018-07-12T01:19:16.622Z,86.8
2018-07-12T01:20:16.890Z,86.2
2018-07-12T01:21:16.926Z,86.1
2018-07-12T01:22:17.187Z,84.9
2018-07-12T01:23:16.453Z,85.0
2018-07-12T01:24:16.735Z,85.3
2018-07-12T01:25:16.998Z,85.3
2018-07-12T01:26:16.260Z,85.8
2018-07-12T01:27:16.524Z,85.9
2018-07-12T01:28:16.783Z,86.4
2018-07-12T01:29:17.065Z,86.6
2018-07-12T01:30:16.344Z,86.9
2018-07-12T01:31:16.390Z,86.8
2018-07-12T01:32:16.657Z,86.7
2018-07-12T01:33:16.916Z,86.9
2018-07-12T01:34:17.174Z,85.7
2018-07-12T01:35:16.428Z,85.5
2018-07-12T01:36:16.700Z,85.4
2018-07-12T01:37:16.971Z,85.9
2018-07-12T01:38:17.235Z,85.9
2018-07-12T01:39:16.515Z,86.1
2018-07-12T01:40:17.260Z,86.5
2018-07-12T01:41:16.840Z,86.4
2018-07-12T01:42:17.103Z,87.1
2018-07-12T01:43:16.362Z,87.0
2018-07-12T01:44:16.623Z,87.0
2018-07-12T01:45:16.878Z,87.1
2018-07-12T01:46:17.142Z,87.2
2018-07-12T01:47:16.413Z,87.4
2018-07-12T01:48:16.683Z,87.9
2018-07-12T01:49:16.941Z,87.9
2018-07-12T01:50:17.198Z,87.5
2018-07-12T01:51:17.247Z,87.5
2018-07-12T01:52:16.512Z,87.7
2018-07-12T01:53:16.776Z,87.7
2018-07-12T01:54:17.029Z,88.1
2018-07-12T01:55:16.286Z,88.0
2018-07-12T01:56:16.555Z,87.3
2018-07-12T01:57:16.822Z,87.5
2018-07-12T01:58:17.087Z,87.3
2018-07-12T01:59:16.348Z,87.0
2018-07-12T02:00:16.621Z,87.1
2018-07-12T02:01:16.671Z,87.3
2018-07-12T02:02:16.985Z,87.5
2018-07-12T02:03:17.256Z,87.6
2018-07-12T02:04:16.512Z,87.7
2018-07-12T02:05:17.932Z,87.6
2018-07-12T02:06:17.468Z,87.9
2018-07-12T02:07:16.740Z,87.8
2018-07-12T02:08:17.003Z,87.6
2018-07-12T02:09:16.266Z,88.0
2018-07-12T02:10:16.531Z,87.4
2018-07-12T02:11:16.581Z,87.3
2018-07-12T02:12:16.846Z,87.5
2018-07-12T02:13:17.108Z,87.1
2018-07-12T02:14:16.372Z,86.7
2018-07-12T02:15:16.629Z,87.2
2018-07-12T02:16:16.881Z,87.3
2018-07-12T02:17:17.137Z,87.3
2018-07-12T02:18:16.401Z,87.4
2018-07-12T02:19:16.664Z,87.5
2018-07-12T02:20:16.936Z,87.5
2018-07-12T02:21:17.022Z,87.0
2018-07-12T02:22:16.288Z,86.8
2018-07-12T02:23:16.552Z,86.9
2018-07-12T02:24:16.814Z,87.0
2018-07-12T02:25:17.082Z,86.7
2018-07-12T02:26:16.344Z,87.0
2018-07-12T02:27:16.604Z,87.4
2018-07-12T02:28:16.858Z,87.7
2018-07-12T02:29:17.116Z,88.3
2018-07-12T02:30:16.400Z,88.3
2018-07-12T02:31:16.664Z,88.1
2018-07-12T02:32:16.926Z,88.2
2018-07-12T02:33:17.188Z,88.2
2018-07-12T02:34:16.451Z,88.0
2018-07-12T02:35:16.963Z,87.8
2018-07-12T02:36:16.257Z,88.0
2018-07-12T02:37:16.819Z,88.2
2018-07-12T02:38:17.083Z,88.3
2018-07-12T02:39:16.358Z,88.3
2018-07-12T02:40:16.630Z,88.4
2018-07-12T02:41:16.678Z,88.7
2018-07-12T02:42:16.939Z,89.0
2018-07-12T02:43:17.196Z,89.1
2018-07-12T02:44:16.459Z,89.4
2018-07-12T02:45:16.723Z,89.4
2018-07-12T02:46:16.986Z,89.2
2018-07-12T02:47:17.274Z,89.1
2018-07-12T02:48:16.550Z,89.1
2018-07-12T02:49:16.821Z,89.1
2018-07-12T02:50:17.085Z,89.3
2018-07-12T02:51:17.152Z,89.3
2018-07-12T02:52:16.407Z,89.3
2018-07-12T02:53:17.170Z,89.3
2018-07-12T02:54:16.428Z,89.3
2018-07-12T02:55:16.691Z,89.2
2018-07-12T02:56:16.970Z,89.0
2018-07-12T02:57:17.232Z,89.1
2018-07-12T02:58:16.485Z,88.9
2018-07-12T02:59:16.770Z,89.1
2018-07-12T03:00:17.045Z,89.2
2018-07-12T03:01:17.086Z,89.2
2018-07-12T03:02:16.357Z,89.1
2018-07-12T03:03:16.617Z,89.0
2018-07-12T03:04:16.872Z,88.8
2018-07-12T03:05:17.134Z,88.8
2018-07-12T03:06:16.394Z,88.8
2018-07-12T03:07:16.657Z,88.5
2018-07-12T03:08:16.927Z,88.5
2018-07-12T03:09:17.197Z,88.3
2018-07-12T03:10:16.477Z,88.4
2018-07-12T03:11:16.516Z,87.5
2018-07-12T03:12:16.774Z,87.5
2018-07-12T03:13:17.035Z,87.8
2018-07-12T03:14:16.298Z,87.9
2018-07-12T03:15:16.571Z,88.1
2018-07-12T03:16:16.860Z,88.1
2018-07-12T03:17:17.134Z,88.5
2018-07-12T03:18:16.396Z,88.5
2018-07-12T03:19:16.657Z,88.7
2018-07-12T03:20:16.922Z,88.9
2018-07-12T03:21:16.959Z,89.0
2018-07-12T03:22:17.226Z,89.1
2018-07-12T03:23:16.505Z,89.1
2018-07-12T03:24:16.778Z,89.2
2018-07-12T03:25:17.047Z,89.1
2018-07-12T03:26:16.310Z,89.3
2018-07-12T03:27:16.579Z,89.4
2018-07-12T03:28:16.847Z,89.3
2018-07-12T03:29:17.120Z,89.1
2018-07-12T03:30:16.393Z,88.8
2018-07-12T03:31:16.432Z,88.7
2018-07-12T03:32:16.702Z,88.7
2018-07-12T03:33:16.961Z,88.9
2018-07-12T03:34:17.222Z,89.3
2018-07-12T03:35:16.494Z,89.3
2018-07-12T03:36:16.750Z,89.3
2018-07-12T03:37:17.011Z,89.2
2018-07-12T03:38:16.274Z,89.1
2018-07-12T03:39:16.551Z,88.6
2018-07-12T03:40:16.828Z,87.8
2018-07-12T03:41:16.857Z,87.8
2018-07-12T03:42:17.130Z,88.0
2018-07-12T03:43:16.393Z,87.9
2018-07-12T03:44:16.655Z,88.1
2018-07-12T03:45:16.920Z,88.3
2018-07-12T03:46:17.191Z,88.3
2018-07-12T03:47:16.661Z,88.3
2018-07-12T03:48:16.920Z,88.3
2018-07-12T03:49:17.195Z,88.3
2018-07-12T03:50:16.466Z,88.1
2018-07-12T03:51:16.507Z,87.8
2018-07-12T03:52:16.776Z,87.9
2018-07-12T03:53:17.036Z,87.9
2018-07-12T03:54:16.311Z,88.0
2018-07-12T03:55:16.572Z,87.9
2018-07-12T03:56:16.839Z,87.9
2018-07-12T03:57:17.115Z,88.0
2018-07-12T03:58:16.385Z,87.8
2018-07-12T03:59:16.650Z,87.8
2018-07-12T04:00:16.911Z,87.8
2018-07-12T04:01:16.970Z,87.9
2018-07-12T04:02:17.235Z,87.9
2018-07-12T04:03:16.494Z,88.1
2018-07-12T04:04:16.750Z,88.0
2018-07-12T04:05:16.999Z,88.2
2018-07-12T04:06:16.261Z,87.6
2018-07-12T04:07:16.547Z,87.7
2018-07-12T04:08:16.806Z,87.5
2018-07-12T04:09:17.077Z,87.5
2018-07-12T04:10:16.386Z,87.5
2018-07-12T04:11:16.381Z,87.6
2018-07-12T04:12:16.644Z,87.6
2018-07-12T04:13:16.903Z,87.6
2018-07-12T04:14:17.167Z,87.7
2018-07-12T04:15:16.432Z,87.8
2018-07-12T04:16:16.690Z,87.7
2018-07-12T04:17:16.957Z,87.7
2018-07-12T04:18:17.230Z,87.7
2018-07-12T04:19:16.492Z,87.7
2018-07-12T04:20:16.757Z,87.4
2018-07-12T04:21:16.806Z,87.3
2018-07-12T04:22:17.248Z,87.2
2018-07-12T04:23:16.516Z,87.0
2018-07-12T04:24:16.776Z,87.2
2018-07-12T04:25:17.042Z,87.1
2018-07-12T04:26:16.310Z,86.9
2018-07-12T04:27:16.572Z,86.2
2018-07-12T04:28:16.838Z,86.4
2018-07-12T04:29:17.114Z,86.2
2018-07-12T04:30:16.383Z,86.1
2018-07-12T04:31:16.434Z,85.8
2018-07-12T04:32:16.691Z,85.3
2018-07-12T04:33:16.967Z,85.7
2018-07-12T04:34:17.233Z,85.4
2018-07-12T04:35:16.511Z,85.5
2018-07-12T04:36:16.782Z,85.3
2018-07-12T04:37:17.051Z,85.1
2018-07-12T04:38:16.322Z,85.2
2018-07-12T04:39:16.587Z,83.7
2018-07-12T04:40:16.862Z,83.7
2018-07-12T04:41:16.889Z,83.8
2018-07-12T04:42:17.472Z,82.8
2018-07-12T04:43:16.731Z,82.7
2018-07-12T04:44:16.989Z,82.8
2018-07-12T04:45:17.269Z,83.3
2018-07-12T04:46:16.535Z,83.6
2018-07-12T04:47:16.804Z,83.9
2018-07-12T04:48:17.082Z,83.7
2018-07-12T04:49:16.396Z,83.0
2018-07-12T04:50:16.582Z,82.4
2018-07-12T04:51:16.837Z,82.7
2018-07-12T04:52:17.221Z,82.5
2018-07-12T04:53:16.496Z,82.2
2018-07-12T04:54:16.756Z,82.2
2018-07-12T04:55:17.025Z,82.0
2018-07-12T04:56:16.306Z,81.7
2018-07-12T04:57:16.569Z,81.3
2018-07-12T04:58:17.152Z,81.5
2018-07-12T04:59:16.510Z,80.6
2018-07-12T05:00:16.779Z,80.4
2018-07-12T05:01:16.808Z,80.7
2018-07-12T05:02:17.075Z,80.7
2018-07-12T05:03:16.332Z,80.6
2018-07-12T05:04:16.614Z,80.5
2018-07-12T05:05:16.877Z,80.5
2018-07-12T05:06:17.137Z,80.3
2018-07-12T05:07:16.392Z,80.4
2018-07-12T05:08:16.657Z,80.3
2018-07-12T05:09:16.923Z,80.0
2018-07-12T05:10:17.195Z,80.1
2018-07-12T05:11:17.217Z,78.7
2018-07-12T05:12:16.516Z,79.4
2018-07-12T05:13:16.778Z,77.9
2018-07-12T05:14:17.040Z,77.8
2018-07-12T05:15:16.301Z,78.0
2018-07-12T05:16:16.823Z,78.5
2018-07-12T05:17:17.179Z,78.6
2018-07-12T05:18:16.437Z,78.3
2018-07-12T05:19:16.700Z,78.2
2018-07-12T05:20:16.966Z,78.4
2018-07-12T05:21:17.006Z,77.9
2018-07-12T05:22:16.281Z,77.1
2018-07-12T05:23:16.553Z,77.4
2018-07-12T05:24:16.819Z,76.7
2018-07-12T05:25:17.081Z,76.2
2018-07-12T05:26:16.339Z,76.0
2018-07-12T05:27:16.572Z,75.9
2018-07-12T05:28:16.831Z,75.2
2018-07-12T05:29:17.100Z,75.5
2018-07-12T05:30:16.363Z,75.9
2018-07-12T05:31:16.422Z,75.4
2018-07-12T05:32:16.680Z,76.2
2018-07-12T05:33:16.940Z,76.4
2018-07-12T05:34:17.203Z,77.3
2018-07-12T05:35:16.478Z,77.7
2018-07-12T05:36:16.752Z,77.0
2018-07-12T05:37:17.018Z,77.0
2018-07-12T05:38:16.275Z,77.0
2018-07-12T05:39:16.589Z,77.3
2018-07-12T05:40:16.867Z,77.2
2018-07-12T05:41:16.901Z,77.5
2018-07-12T05:42:17.169Z,77.5
2018-07-12T05:43:16.435Z,77.3
2018-07-12T05:44:16.690Z,77.8
2018-07-12T05:45:16.952Z,77.7
2018-07-12T05:46:17.212Z,78.0
2018-07-12T05:47:16.486Z,77.9
2018-07-12T05:48:16.737Z,77.8
2018-07-12T05:49:17.001Z,78.0
2018-07-12T05:50:16.272Z,78.9
2018-07-12T05:51:16.329Z,78.9
2018-07-12T05:52:16.597Z,78.4
2018-07-12T05:53:16.848Z,78.4
2018-07-12T05:54:17.121Z,78.7
2018-07-12T05:55:16.386Z,78.4
2018-07-12T05:56:16.658Z,78.5
2018-07-12T05:57:16.926Z,78.8
2018-07-12T05:58:17.188Z,78.8
2018-07-12T05:59:16.447Z,78.6
2018-07-12T06:00:16.716Z,78.8
2018-07-12T06:01:16.759Z,78.9
2018-07-12T06:02:17.027Z,78.9
2018-07-12T06:03:16.291Z,79.1
2018-07-12T06:04:16.558Z,79.3
2018-07-12T06:05:16.820Z,78.2
2018-07-12T06:06:17.100Z,78.4
2018-07-12T06:07:16.366Z,78.4
2018-07-12T06:08:16.629Z,77.9
2018-07-12T06:09:16.896Z,77.4
2018-07-12T06:10:17.181Z,77.9
2018-07-12T06:11:17.217Z,78.1
2018-07-12T06:12:16.484Z,78.0
2018-07-12T06:13:17.038Z,78.2
2018-07-12T06:14:16.308Z,78.1
2018-07-12T06:15:16.567Z,78.1
2018-07-12T06:16:16.836Z,78.1
2018-07-12T06:17:17.097Z,78.5
2018-07-12T06:18:16.365Z,78.8
2018-07-12T06:19:16.628Z,79.1
2018-07-12T06:20:16.898Z,79.0
2018-07-12T06:21:16.923Z,79.1
2018-07-12T06:22:17.189Z,79.1
2018-07-12T06:23:16.454Z,79.1
2018-07-12T06:24:16.737Z,79.1
2018-07-12T06:25:17.071Z,79.0
2018-07-12T06:26:16.347Z,79.1
2018-07-12T06:27:16.605Z,78.2
2018-07-12T06:28:16.858Z,77.8
2018-07-12T06:29:17.112Z,77.4
2018-07-12T06:30:16.386Z,77.4
2018-07-12T06:31:16.459Z,77.5
2018-07-12T06:32:16.710Z,77.0
2018-07-12T06:33:16.981Z,76.7
2018-07-12T06:34:17.241Z,76.1
2018-07-12T06:35:16.504Z,75.3
2018-07-12T06:36:16.759Z,74.1
2018-07-12T06:37:17.182Z,73.7
2018-07-12T06:38:16.519Z,73.2
2018-07-12T06:39:16.785Z,72.2
2018-07-12T06:40:17.105Z,73.2
2018-07-12T06:41:17.103Z,70.6
2018-07-12T06:42:16.361Z,71.4
2018-07-12T06:43:16.619Z,71.4
2018-07-12T06:44:16.886Z,71.4
2018-07-12T06:45:17.161Z,72.1
2018-07-12T06:46:16.432Z,72.6
2018-07-12T06:47:16.686Z,72.7
2018-07-12T06:48:16.956Z,73.8
2018-07-12T06:49:17.214Z,74.0
2018-07-12T06:50:16.483Z,73.4
2018-07-12T06:51:16.525Z,72.9
2018-07-12T06:52:16.789Z,73.1
2018-07-12T06:53:17.053Z,73.7
2018-07-12T06:54:16.338Z,72.8
2018-07-12T06:55:16.610Z,72.6
2018-07-12T06:56:16.873Z,71.6
2018-07-12T06:57:17.130Z,71.0
2018-07-12T06:58:16.389Z,71.4
2018-07-12T06:59:16.659Z,72.3
2018-07-12T07:00:16.923Z,72.2
2018-07-12T07:01:16.995Z,71.9
2018-07-12T07:02:16.259Z,70.9
2018-07-12T07:03:16.544Z,70.6
2018-07-12T07:04:16.819Z,69.9
2018-07-12T07:05:17.089Z,69.5
2018-07-12T07:06:16.355Z,69.2
2018-07-12T07:07:16.651Z,68.8
2018-07-12T07:08:16.918Z,68.4
2018-07-12T07:09:17.181Z,67.7
2018-07-12T07:10:16.457Z,68.7
2018-07-12T07:11:16.494Z,69.8
2018-07-12T07:12:16.755Z,70.1
2018-07-12T07:13:17.021Z,69.7
2018-07-12T07:14:16.275Z,69.5
2018-07-12T07:15:16.545Z,69.3
2018-07-12T07:16:16.850Z,68.5
2018-07-12T07:17:17.120Z,67.5
2018-07-12T07:18:16.382Z,67.2
2018-07-12T07:19:16.648Z,67.6
2018-07-12T07:20:17.137Z,67.6
2018-07-12T07:21:16.952Z,67.9
2018-07-12T07:22:17.230Z,67.4
2018-07-12T07:23:16.501Z,68.0
2018-07-12T07:24:16.756Z,68.4
2018-07-12T07:25:17.027Z,68.2
2018-07-12T07:26:16.447Z,68.1
2018-07-12T07:27:16.768Z,68.1
2018-07-12T07:28:17.048Z,68.0
2018-07-12T07:29:16.306Z,68.5
2018-07-12T07:30:16.587Z,68.9
2018-07-12T07:31:16.610Z,69.1
2018-07-12T07:32:16.910Z,69.0
2018-07-12T07:33:17.181Z,68.4
2018-07-12T07:34:16.437Z,69.2
2018-07-12T07:35:16.718Z,70.1
2018-07-12T07:36:16.983Z,69.4
2018-07-12T07:37:17.246Z,67.7
2018-07-12T07:38:16.506Z,66.4
2018-07-12T07:39:16.764Z,65.7
2018-07-12T07:40:17.029Z,64.1
2018-07-12T07:41:17.063Z,60.2
2018-07-12T07:42:16.317Z,59.9
2018-07-12T07:43:16.727Z,59.5
2018-07-12T07:44:17.066Z,58.5
2018-07-12T07:45:16.322Z,54.9
2018-07-12T07:46:16.591Z,52.2
2018-07-12T07:47:16.848Z,51.3
2018-07-12T07:48:17.491Z,55.3
2018-07-12T07:49:16.947Z,57.9
2018-07-12T07:50:17.223Z,54.0
2018-07-12T07:51:16.267Z,54.1
2018-07-12T07:52:16.541Z,51.4
2018-07-12T07:53:16.792Z,51.2
2018-07-12T07:54:17.065Z,52.6
2018-07-12T07:55:16.329Z,52.2
2018-07-12T07:56:16.585Z,55.4
2018-07-12T07:57:16.853Z,54.9
2018-07-12T07:58:17.119Z,54.2
2018-07-12T07:59:16.375Z,51.3
2018-07-12T08:00:16.657Z,47.8
2018-07-12T08:01:16.671Z,45.6
2018-07-12T08:02:16.921Z,44.5
2018-07-12T08:03:17.292Z,42.5
2018-07-12T08:04:16.550Z,41.0
2018-07-12T08:05:16.814Z,43.4
2018-07-12T08:06:17.083Z,44.0
2018-07-12T08:07:16.344Z,44.0
2018-07-12T08:08:16.606Z,41.8
2018-07-12T08:09:16.875Z,40.2
2018-07-12T08:10:17.136Z,38.4
2018-07-12T08:11:17.168Z,38.7
2018-07-12T08:12:16.426Z,43.7
2018-07-12T08:13:16.688Z,44.8
2018-07-12T08:14:16.946Z,45.1
2018-07-12T08:15:17.210Z,42.7
2018-07-12T08:16:16.618Z,45.1
2018-07-12T08:17:16.947Z,44.0
2018-07-12T08:18:17.210Z,45.6
2018-07-12T08:19:16.472Z,47.3
2018-07-12T08:20:16.735Z,47.8
2018-07-12T08:21:16.785Z,47.4
2018-07-12T08:22:17.042Z,46.6
2018-07-12T08:23:16.297Z,48.4
2018-07-12T08:24:16.552Z,49.0
2018-07-12T08:25:16.812Z,49.1
2018-07-12T08:26:17.078Z,48.2
2018-07-12T08:27:16.331Z,48.1
2018-07-12T08:28:16.598Z,48.3
2018-07-12T08:29:16.888Z,50.3
2018-07-12T08:30:17.168Z,51.0
2018-07-12T08:31:17.362Z,50.2
2018-07-12T08:32:16.681Z,49.6
2018-07-12T08:33:17.041Z,49.9
2018-07-12T08:34:16.308Z,45.0
2018-07-12T08:35:16.575Z,44.1
2018-07-12T08:36:16.991Z,44.0
2018-07-12T08:37:16.331Z,43.1
2018-07-12T08:38:16.584Z,42.6
2018-07-12T08:39:16.850Z,45.4
2018-07-12T08:40:17.119Z,45.7
2018-07-12T08:41:17.158Z,45.2
2018-07-12T08:42:16.511Z,48.4
2018-07-12T08:43:16.775Z,48.1
2018-07-12T08:44:17.039Z,51.1
2018-07-12T08:45:16.319Z,53.9
2018-07-12T08:46:16.844Z,54.3
2018-07-12T08:47:17.170Z,55.2
2018-07-12T08:48:16.475Z,55.3
2018-07-12T08:49:16.753Z,53.9
2018-07-12T08:50:17.024Z,54.2
2018-07-12T08:51:17.060Z,51.6
2018-07-12T08:52:16.319Z,50.1
2018-07-12T08:53:16.637Z,46.1
2018-07-12T08:54:16.903Z,43.2
2018-07-12T08:55:17.192Z,42.2
2018-07-12T08:56:16.458Z,43.6
2018-07-12T08:57:16.724Z,47.2
2018-07-12T08:58:16.982Z,47.2
2018-07-12T08:59:17.246Z,50.0
2018-07-12T09:00:16.569Z,49.5
2018-07-12T09:01:16.571Z,48.7
2018-07-12T09:02:16.861Z,47.3
2018-07-12T09:03:17.118Z,49.1
2018-07-12T09:04:16.378Z,50.5
2018-07-12T09:05:16.639Z,49.1
2018-07-12T09:06:16.908Z,49.0
2018-07-12T09:07:17.166Z,49.7
2018-07-12T09:08:16.438Z,50.7
2018-07-12T09:09:16.711Z,50.4
2018-07-12T09:10:16.981Z,49.9
2018-07-12T09:11:17.036Z,49.8
2018-07-12T09:12:16.297Z,48.6
2018-07-12T09:13:16.560Z,46.6
2018-07-12T09:14:16.815Z,45.4
2018-07-12T09:15:17.074Z,46.3
2018-07-12T09:16:16.338Z,46.6
2018-07-12T09:17:16.601Z,46.8
2018-07-12T09:18:16.861Z,45.2
2018-07-12T09:19:17.130Z,46.0
2018-07-12T09:20:16.397Z,44.9
2018-07-12T09:21:16.431Z,45.0
2018-07-12T09:22:16.693Z,47.2
2018-07-12T09:23:16.956Z,47.8
2018-07-12T09:24:17.221Z,46.4
2018-07-12T09:25:16.491Z,47.3
2018-07-12T09:26:16.752Z,50.7
2018-07-12T09:27:17.002Z,51.4
2018-07-12T09:28:16.271Z,52.3
2018-07-12T09:29:16.715Z,51.3
2018-07-12T09:30:17.043Z,51.0
2018-07-12T09:31:17.101Z,51.3
2018-07-12T09:32:16.359Z,51.5
2018-07-12T09:33:16.622Z,50.3
2018-07-12T09:34:16.884Z,49.6
2018-07-12T09:35:17.152Z,47.8
2018-07-12T09:36:16.416Z,48.5
2018-07-12T09:37:16.685Z,48.7
2018-07-12T09:38:16.945Z,50.2
2018-07-12T09:39:17.205Z,49.4
2018-07-12T09:40:16.471Z,45.0
2018-07-12T09:41:16.515Z,45.0
2018-07-12T09:42:16.783Z,45.1
2018-07-12T09:43:17.053Z,46.8
2018-07-12T09:44:16.307Z,47.6
2018-07-12T09:45:16.574Z,46.8
2018-07-12T09:46:16.844Z,44.4
2018-07-12T09:47:17.243Z,43.0
2018-07-12T09:48:16.691Z,45.6
2018-07-12T09:49:17.435Z,48.5
2018-07-12T09:50:16.736Z,48.4
2018-07-12T09:51:16.776Z,46.4
2018-07-12T09:52:17.035Z,44.8
2018-07-12T09:53:16.300Z,43.5
2018-07-12T09:54:16.560Z,43.1
2018-07-12T09:55:16.831Z,49.0
2018-07-12T09:56:17.407Z,49.2
2018-07-12T09:57:16.719Z,50.1
2018-07-12T09:58:16.977Z,47.1
2018-07-12T09:59:17.237Z,47.3
2018-07-12T10:00:16.501Z,47.7
2018-07-12T10:01:16.710Z,48.2
2018-07-12T10:02:16.997Z,47.3
2018-07-12T10:03:16.256Z,47.2
2018-07-12T10:04:16.510Z,47.5
2018-07-12T10:05:16.784Z,47.3
2018-07-12T10:06:17.037Z,45.8
2018-07-12T10:07:16.297Z,44.6
2018-07-12T10:08:16.562Z,44.9
2018-07-12T10:09:16.819Z,45.2
2018-07-12T10:10:17.092Z,44.9
2018-07-12T10:11:17.137Z,45.5
2018-07-12T10:12:16.390Z,44.3
2018-07-12T10:13:16.660Z,44.9
2018-07-12T10:14:16.923Z,47.0
2018-07-12T10:15:17.193Z,47.1
2018-07-12T10:16:16.454Z,46.9
2018-07-12T10:17:16.728Z,45.9
2018-07-12T10:18:17.008Z,46.7
2018-07-12T10:19:16.267Z,46.7
2018-07-12T10:20:16.539Z,46.1
2018-07-12T10:21:16.575Z,45.7
2018-07-12T10:22:16.837Z,43.9
2018-07-12T10:23:17.096Z,42.4
2018-07-12T10:24:16.348Z,41.4
2018-07-12T10:25:16.618Z,40.6
2018-07-12T10:26:16.881Z,39.5
2018-07-12T10:27:17.146Z,38.7
2018-07-12T10:28:16.414Z,39.4
2018-07-12T10:29:16.674Z,40.0
2018-07-12T10:30:16.947Z,37.4
2018-07-12T10:31:16.994Z,38.3
2018-07-12T10:32:16.248Z,39.0
2018-07-12T10:33:16.512Z,38.4
2018-07-12T10:34:16.771Z,37.2
2018-07-12T10:35:17.037Z,35.2
2018-07-12T10:36:16.302Z,35.4
2018-07-12T10:37:16.567Z,34.8
2018-07-12T10:38:16.882Z,34.0
2018-07-12T10:39:17.148Z,33.2
2018-07-12T10:40:16.420Z,35.5
2018-07-12T10:41:16.545Z,34.1
2018-07-12T10:42:16.801Z,33.2
2018-07-12T10:43:17.076Z,33.3
2018-07-12T10:44:16.346Z,36.1
2018-07-12T10:45:16.617Z,35.0
2018-07-12T10:46:16.873Z,34.8
2018-07-12T10:47:17.132Z,38.2
2018-07-12T10:48:16.391Z,40.7
2018-07-12T10:49:16.647Z,39.1
2018-07-12T10:50:16.914Z,38.4
2018-07-12T10:51:16.950Z,37.0
2018-07-12T10:52:17.222Z,36.5
2018-07-12T10:53:16.472Z,36.7
2018-07-12T10:54:16.734Z,37.1
2018-07-12T10:55:17.008Z,37.5
2018-07-12T10:56:16.266Z,36.7
2018-07-12T10:57:16.541Z,38.5
2018-07-12T10:58:16.811Z,39.2
2018-07-12T10:59:17.068Z,39.8
2018-07-12T11:00:16.341Z,38.7
2018-07-12T11:01:16.379Z,39.3
2018-07-12T11:02:16.650Z,39.8
2018-07-12T11:03:16.911Z,37.4
2018-07-12T11:04:17.177Z,35.3
2018-07-12T11:05:16.455Z,32.7
2018-07-12T11:06:16.725Z,33.2
2018-07-12T11:07:16.991Z,33.6
2018-07-12T11:08:16.251Z,32.7
2018-07-12T11:09:16.506Z,32.8
2018-07-12T11:10:16.773Z,32.8
2018-07-12T11:11:16.828Z,32.8
2018-07-12T11:12:17.087Z,32.7
2018-07-12T11:13:16.351Z,33.0
2018-07-12T11:14:16.609Z,33.0
2018-07-12T11:15:16.865Z,34.7
2018-07-12T11:16:17.136Z,34.4
2018-07-12T11:17:16.399Z,35.1
2018-07-12T11:18:16.657Z,35.1
2018-07-12T11:19:16.919Z,36.0
2018-07-12T11:20:17.190Z,36.6
2018-07-12T11:21:17.500Z,37.6
2018-07-12T11:22:16.878Z,36.6
2018-07-12T11:23:17.151Z,35.6
2018-07-12T11:24:16.415Z,36.3
2018-07-12T11:25:16.677Z,34.8
2018-07-12T11:26:16.933Z,34.6
2018-07-12T11:27:17.194Z,34.1
2018-07-12T11:28:16.460Z,32.8
2018-07-12T11:29:16.728Z,33.4
2018-07-12T11:30:17.090Z,33.9
2018-07-12T11:31:17.043Z,32.5
2018-07-12T11:32:16.306Z,33.5
2018-07-12T11:33:16.582Z,34.2
2018-07-12T11:34:16.858Z,32.8
2018-07-12T11:35:17.110Z,33.3
2018-07-12T11:36:16.524Z,35.8
2018-07-12T11:37:16.792Z,36.8
2018-07-12T11:38:17.047Z,36.6
2018-07-12T11:39:16.317Z,37.3
2018-07-12T11:40:16.585Z,37.5
2018-07-12T11:41:16.633Z,37.1
2018-07-12T11:42:16.886Z,37.7
2018-07-12T11:43:17.147Z,38.6
2018-07-12T11:44:16.408Z,39.1
2018-07-12T11:45:16.679Z,38.7
2018-07-12T11:46:16.952Z,39.9
2018-07-12T11:47:17.218Z,40.3
2018-07-12T11:48:16.482Z,40.2
2018-07-12T11:49:17.085Z,39.6
2018-07-12T11:50:16.346Z,39.1
2018-07-12T11:51:16.421Z,38.2
2018-07-12T11:52:16.682Z,37.4
2018-07-12T11:53:16.966Z,37.5
2018-07-12T11:54:17.235Z,37.4
2018-07-12T11:55:16.502Z,37.7
2018-07-12T11:56:16.761Z,37.5
2018-07-12T11:57:17.022Z,37.5
2018-07-12T11:58:16.289Z,37.7
2018-07-12T11:59:16.549Z,37.8
2018-07-12T12:00:16.829Z,38.6
2018-07-12T12:01:16.967Z,38.2
2018-07-12T12:02:17.242Z,38.6
2018-07-12T12:03:16.503Z,39.7
2018-07-12T12:04:16.768Z,39.7
2018-07-12T12:05:17.040Z,40.5
2018-07-12T12:06:16.306Z,40.8
2018-07-12T12:07:16.565Z,41.7
2018-07-12T12:08:16.838Z,40.5
2018-07-12T12:09:17.094Z,40.9
2018-07-12T12:10:16.358Z,41.6
2018-07-12T12:11:16.399Z,42.3
2018-07-12T12:12:16.677Z,42.4
2018-07-12T12:13:16.943Z,43.1
2018-07-12T12:14:17.209Z,43.6
2018-07-12T12:15:16.477Z,43.2
2018-07-12T12:16:16.732Z,41.9
2018-07-12T12:17:16.994Z,42.3
2018-07-12T12:18:16.255Z,42.8
2018-07-12T12:19:16.573Z,43.7
2018-07-12T12:20:16.860Z,42.8
2018-07-12T12:21:16.909Z,42.1
2018-07-12T12:22:17.179Z,42.3
2018-07-12T12:23:16.441Z,43.0
2018-07-12T12:24:16.703Z,43.1
2018-07-12T12:25:16.963Z,42.7
2018-07-12T12:26:17.226Z,42.1
2018-07-12T12:27:16.488Z,42.4
2018-07-12T12:28:16.818Z,43.1
2018-07-12T12:29:17.083Z,43.4
2018-07-12T12:30:16.354Z,42.5
2018-07-12T12:31:16.456Z,42.4
2018-07-12T12:32:16.716Z,43.4
2018-07-12T12:33:16.981Z,43.7
2018-07-12T12:34:17.243Z,43.5
2018-07-12T12:35:16.495Z,43.2
2018-07-12T12:36:16.766Z,42.7
2018-07-12T12:37:17.031Z,42.3
2018-07-12T12:38:16.288Z,42.3
2018-07-12T12:39:16.546Z,41.5
2018-07-12T12:40:16.819Z,41.5
2018-07-12T12:41:16.866Z,41.9
2018-07-12T12:42:17.127Z,40.6
2018-07-12T12:43:16.387Z,40.3
2018-07-12T12:44:16.649Z,40.7
2018-07-12T12:45:16.898Z,41.1
2018-07-12T12:46:17.170Z,41.7
2018-07-12T12:47:16.429Z,40.9
2018-07-12T12:48:16.693Z,41.2
2018-07-12T12:49:16.953Z,40.6
2018-07-12T12:50:17.609Z,41.1
2018-07-12T12:51:16.267Z,40.7
2018-07-12T12:52:16.543Z,40.9
2018-07-12T12:53:16.813Z,41.0
2018-07-12T12:54:17.084Z,41.2
2018-07-12T12:55:16.358Z,41.4
2018-07-12T12:56:16.615Z,40.4
2018-07-12T12:57:16.869Z,40.7
2018-07-12T12:58:17.138Z,40.7
2018-07-12T12:59:16.406Z,40.3
2018-07-12T13:00:16.685Z,40.6
2018-07-12T13:01:16.727Z,41.2
2018-07-12T13:02:16.987Z,41.1
2018-07-12T13:03:16.248Z,40.6
2018-07-12T13:04:16.511Z,41.2
2018-07-12T13:05:16.767Z,41.0
2018-07-12T13:06:17.030Z,41.1
2018-07-12T13:07:16.293Z,40.6
2018-07-12T13:08:16.563Z,40.4
2018-07-12T13:09:16.835Z,41.2
2018-07-12T13:10:17.104Z,41.4
2018-07-12T13:11:17.136Z,41.3
2018-07-12T13:12:16.393Z,41.4
2018-07-12T13:13:16.667Z,41.9
2018-07-12T13:14:16.960Z,41.5
2018-07-12T13:15:17.228Z,41.8
2018-07-12T13:16:16.507Z,41.8
2018-07-12T13:17:16.781Z,42.2
2018-07-12T13:18:17.042Z,42.1